Time;durP1;ratioP1;P1;durP2;ratioP2;P2;SDS_P1;SDS_P2;PMS_P1;PMS_P2;Temp;Humidity;BMP_temperature;BMP_pressure;BME280_temperature;BME280_humidity;BME280_pressure;Samples;Min_cycle;Max_cycle;Signal;HPM_P1;HPM_P2
2023/06/04 00:00:03;;;;;;;5.93;4.93;;;;;;;14.91;67.72;98106.25;5050005;28;20230;-76
2023/06/04 00:02:30;;;;;;;6.57;4.67;;;;;;;14.90;67.68;98107.22;5050773;28;20208;-76
2023/06/04 00:04:57;;;;;;;7.67;5.50;;;;;;;14.95;66.37;98108.50;5050661;28;20608;-77
2023/06/04 00:07:25;;;;;;;7.63;4.53;;;;;;;14.94;66.32;98112.13;5050780;28;20230;-76
2023/06/04 00:09:53;;;;;;;5.90;4.77;;;;;;;15.01;65.80;98107.09;5050045;28;20227;-76
2023/06/04 00:12:20;;;;;;;6.47;4.20;;;;;;;15.07;64.87;98102.09;5050799;28;20208;-76
2023/06/04 00:14:47;;;;;;;5.63;4.40;;;;;;;15.07;63.93;98103.91;5050699;28;20265;-76
2023/06/04 00:17:14;;;;;;;6.20;4.50;;;;;;;15.06;64.31;98099.56;5050658;28;20409;-76
2023/06/04 00:19:41;;;;;;;6.43;4.53;;;;;;;15.00;64.58;98100.09;5049971;28;20231;-76
2023/06/04 00:22:08;;;;;;;5.53;4.40;;;;;;;14.92;64.76;98107.91;5050960;28;20212;-77
2023/06/04 00:24:35;;;;;;;5.03;4.20;;;;;;;14.77;66.30;98109.22;5051065;28;20214;-76
2023/06/04 00:27:01;;;;;;;4.93;4.40;;;;;;;14.65;67.72;98110.28;5050831;28;20208;-76
2023/06/04 00:29:28;;;;;;;6.53;4.53;;;;;;;14.55;68.68;98117.38;5049920;28;20244;-76
2023/06/04 00:31:55;;;;;;;5.70;4.70;;;;;;;14.51;68.79;98108.84;5050220;28;20208;-76
2023/06/04 00:34:22;;;;;;;4.83;4.20;;;;;;;14.59;66.12;98092.19;5050877;28;20567;-76
2023/06/04 00:36:49;;;;;;;6.07;4.40;;;;;;;14.65;64.67;98084.53;5050665;28;20670;-76
2023/06/04 00:39:15;;;;;;;5.30;4.30;;;;;;;14.65;64.01;98091.66;5049798;28;20231;-77
2023/06/04 00:41:42;;;;;;;5.93;3.90;;;;;;;14.66;63.96;98096.03;5050702;28;20212;-76
2023/06/04 00:44:08;;;;;;;5.07;4.17;;;;;;;14.56;64.45;98097.78;5050671;28;20216;-77
2023/06/04 00:46:36;;;;;;;5.03;3.80;;;;;;;14.59;63.59;98100.16;5050996;28;20239;-76
2023/06/04 00:49:05;;;;;;;5.77;3.97;;;;;;;14.59;63.57;98102.84;5050424;28;20628;-76
2023/06/04 00:51:32;;;;;;;4.17;3.57;;;;;;;14.57;62.55;98102.97;5050729;28;20460;-77
2023/06/04 00:54:01;;;;;;;4.37;3.43;;;;;;;14.48;63.76;98108.25;5054330;28;20208;-76
2023/06/04 00:56:28;;;;;;;5.07;4.00;;;;;;;14.32;65.44;98113.16;5054382;28;20212;-77
2023/06/04 00:58:54;;;;;;;5.37;3.97;;;;;;;14.19;67.20;98123.16;5053322;28;20211;-76
2023/06/04 01:01:27;;;;;;;5.50;3.73;;;;;;;14.07;67.99;98129.47;5051716;28;20235;-76
2023/06/04 01:03:56;;;;;;;5.93;3.67;;;;;;;13.97;68.09;98128.53;5051498;28;20204;-76
2023/06/04 01:06:32;;;;;;;5.30;3.97;;;;;;;13.90;69.49;98132.66;5051322;28;20208;-77
2023/06/04 01:09:00;;;;;;;3.93;3.33;;;;;;;13.90;68.74;98143.28;5052063;28;20223;-76
2023/06/04 01:11:34;;;;;;;4.63;3.23;;;;;;;14.00;65.37;98115.00;5053222;28;20254;-76
2023/06/04 01:14:01;;;;;;;4.07;3.60;;;;;;;14.08;65.04;98115.19;5054430;28;20590;-76
2023/06/04 01:16:29;;;;;;;6.63;4.10;;;;;;;14.18;64.46;98122.25;5054049;28;20231;-77
2023/06/04 01:19:00;;;;;;;4.97;3.60;;;;;;;14.26;62.60;98108.38;5053851;28;20678;-77
2023/06/04 01:21:30;;;;;;;3.73;3.00;;;;;;;14.18;64.53;98116.13;5053596;28;20208;-77
2023/06/04 01:24:01;;;;;;;3.67;3.03;;;;;;;14.07;65.20;98129.47;5053956;28;20334;-76
2023/06/04 01:26:29;;;;;;;3.80;3.40;;;;;;;13.98;65.12;98115.13;5054379;28;20208;-77
2023/06/04 01:28:57;;;;;;;5.63;3.53;;;;;;;13.96;64.84;98118.88;5053629;28;20228;-76
2023/06/04 01:31:24;;;;;;;4.47;3.17;;;;;;;14.03;62.62;98101.44;5053516;28;20207;-77
2023/06/04 01:33:52;;;;;;;4.07;3.20;;;;;;;13.97;63.43;98107.25;5053860;28;20674;-77
2023/06/04 01:36:19;;;;;;;3.67;3.20;;;;;;;13.91;64.25;98118.41;5053621;28;20272;-77
2023/06/04 01:38:47;;;;;;;5.57;3.20;;;;;;;14.04;62.19;98095.16;5053777;28;20573;-77
2023/06/04 01:41:13;;;;;;;5.10;3.00;;;;;;;14.09;61.03;98087.63;5052303;28;20220;-76
2023/06/04 01:43:40;;;;;;;4.60;3.07;;;;;;;14.11;60.72;98088.38;5053376;28;20208;-77
2023/06/04 01:46:06;;;;;;;3.20;2.90;;;;;;;14.06;60.51;98086.06;5053207;28;20227;-77
2023/06/04 01:48:33;;;;;;;4.27;3.30;;;;;;;14.01;61.14;98092.75;5052982;28;20232;-76
2023/06/04 01:51:00;;;;;;;4.60;3.20;;;;;;;14.03;60.68;98090.81;5052129;28;20246;-76
2023/06/04 01:53:26;;;;;;;3.50;2.70;;;;;;;14.03;60.44;98086.34;5052850;28;20616;-77
2023/06/04 01:55:54;;;;;;;3.30;3.00;;;;;;;13.98;60.07;98088.53;5052961;28;20212;-76
2023/06/04 01:58:26;;;;;;;3.73;2.77;;;;;;;13.96;60.28;98089.63;5052872;28;20235;-77
2023/06/04 02:00:54;;;;;;;3.57;2.97;;;;;;;13.92;60.20;98089.06;5051960;28;20236;-76
2023/06/04 02:03:21;;;;;;;3.80;2.90;;;;;;;13.78;61.75;98107.97;5052677;28;20280;-76
2023/06/04 02:05:48;;;;;;;5.07;2.60;;;;;;;13.63;63.60;98119.00;5052570;28;20259;-77
2023/06/04 02:08:18;;;;;;;4.53;3.00;;;;;;;13.45;64.87;98120.50;5052530;28;20278;-76
2023/06/04 02:10:46;;;;;;;4.40;3.13;;;;;;;13.28;66.08;98121.00;5051843;28;20235;-76
2023/06/04 02:13:13;;;;;;;3.97;3.13;;;;;;;13.19;66.83;98130.53;5052618;28;20216;-76
2023/06/04 02:15:40;;;;;;;4.67;2.90;;;;;;;13.09;65.84;98126.09;5052387;28;20211;-76
2023/06/04 02:18:15;;;;;;;4.47;2.80;;;;;;;13.00;66.43;98129.44;5052239;28;20212;-76
2023/06/04 02:20:42;;;;;;;3.70;2.70;;;;;;;12.89;67.78;98132.91;5051447;28;20763;-76
2023/06/04 02:23:09;;;;;;;3.90;2.90;;;;;;;12.79;69.27;98139.94;5052373;28;20228;-77
2023/06/04 02:25:35;;;;;;;3.17;2.67;;;;;;;12.85;67.16;98130.63;5052152;28;20219;-76
2023/06/04 02:28:02;;;;;;;4.20;2.47;;;;;;;12.85;65.67;98110.25;5052524;28;20334;-76
2023/06/04 02:30:29;;;;;;;2.97;2.50;;;;;;;12.92;65.72;98116.78;5051446;28;20236;-77
2023/06/04 02:32:57;;;;;;;4.23;2.60;;;;;;;12.89;66.45;98124.13;5052394;28;20204;-77
2023/06/04 02:35:24;;;;;;;2.63;2.10;;;;;;;12.87;67.27;98128.69;5052439;28;20751;-76
2023/06/04 02:37:51;;;;;;;3.93;2.73;;;;;;;12.87;66.27;98120.72;5052504;28;20207;-76
2023/06/04 02:40:18;;;;;;;3.03;2.10;;;;;;;12.95;63.38;98116.56;5051490;28;20239;-77
2023/06/04 02:42:44;;;;;;;4.33;2.30;;;;;;;13.07;62.54;98109.44;5052437;28;20522;-77
2023/06/04 02:45:12;;;;;;;3.90;2.30;;;;;;;13.12;61.82;98112.56;5052090;28;20208;-77
2023/06/04 02:47:39;;;;;;;3.83;2.67;;;;;;;13.12;62.82;98117.88;5052445;28;20644;-77
2023/06/04 02:50:07;;;;;;;4.77;3.17;;;;;;;13.13;63.06;98115.09;5051384;28;20232;-76
2023/06/04 02:52:36;;;;;;;3.87;2.87;;;;;;;13.19;62.80;98113.75;5051964;28;20243;-76
2023/06/04 02:55:04;;;;;;;4.30;2.70;;;;;;;13.23;61.33;98104.59;5052178;28;20208;-76
2023/06/04 02:57:31;;;;;;;3.43;2.23;;;;;;;13.30;60.66;98093.38;5052240;28;20204;-77
2023/06/04 02:59:57;;;;;;;4.20;2.50;;;;;;;13.32;60.16;98101.22;5051187;28;20601;-77
2023/06/04 03:02:24;;;;;;;3.30;2.57;;;;;;;13.35;60.61;98104.47;5051679;28;20686;-77
2023/06/04 03:04:54;;;;;;;4.63;2.73;;;;;;;13.32;60.43;98099.38;5051737;28;20207;-77
2023/06/04 03:07:22;;;;;;;3.83;2.47;;;;;;;13.42;60.34;98104.78;5051490;28;20380;-77
2023/06/04 03:09:49;;;;;;;5.03;2.33;;;;;;;13.44;60.50;98103.69;5050493;28;20298;-77
2023/06/04 03:12:15;;;;;;;3.30;2.80;;;;;;;13.44;60.40;98102.88;5051223;28;20266;-77
2023/06/04 03:14:42;;;;;;;4.97;3.30;;;;;;;13.55;60.04;98106.34;5051116;28;20204;-76
2023/06/04 03:17:10;;;;;;;4.30;2.83;;;;;;;13.51;60.33;98104.06;5051340;28;20223;-77
2023/06/04 03:19:37;;;;;;;4.90;3.27;;;;;;;13.49;60.55;98111.28;5050477;28;20273;-77
2023/06/04 03:22:05;;;;;;;3.10;2.67;;;;;;;13.40;60.89;98117.34;5051135;28;20212;-76
2023/06/04 03:24:35;;;;;;;3.80;2.83;;;;;;;13.35;61.73;98131.00;5051031;28;20261;-76
2023/06/04 03:27:03;;;;;;;4.20;2.60;;;;;;;13.17;63.41;98136.94;5051052;28;20216;-77
2023/06/04 03:29:30;;;;;;;3.00;2.67;;;;;;;13.05;64.88;98144.06;5050411;28;20240;-76
2023/06/04 03:31:57;;;;;;;3.37;2.53;;;;;;;13.02;64.27;98140.81;5051273;28;20211;-76
2023/06/04 03:34:24;;;;;;;5.37;2.87;;;;;;;13.04;64.03;98138.88;5051036;28;20216;-77
2023/06/04 03:36:51;;;;;;;3.63;2.77;;;;;;;12.94;64.39;98146.66;5050925;28;20208;-77
2023/06/04 03:41:47;;;;;;;4.20;2.90;;;;;;;13.18;62.97;98138.59;5069783;28;20318;-76
2023/06/04 03:44:13;;;;;;;2.90;2.50;;;;;;;13.20;62.62;98134.88;5071156;28;20214;-76
2023/06/04 03:46:40;;;;;;;6.43;3.93;;;;;;;13.26;61.43;98136.22;5071338;28;20215;-76
2023/06/04 03:49:07;;;;;;;2.57;2.37;;;;;;;13.30;62.21;98141.16;5070777;28;20235;-76
2023/06/04 03:51:34;;;;;;;4.60;2.67;;;;;;;13.31;62.04;98145.47;5070954;28;20231;-76
2023/06/04 03:54:01;;;;;;;3.20;2.60;;;;;;;13.31;62.24;98149.94;5070899;28;20213;-76
2023/06/04 03:56:28;;;;;;;5.30;2.80;;;;;;;13.39;61.04;98144.88;5071263;28;20207;-75
2023/06/04 03:58:56;;;;;;;3.13;2.60;;;;;;;13.36;60.92;98138.00;5070898;28;20209;-77
2023/06/04 04:01:24;;;;;;;2.77;2.43;;;;;;;13.38;60.93;98135.22;5070428;28;20776;-76
2023/06/04 04:03:50;;;;;;;4.87;2.67;;;;;;;13.40;61.03;98143.91;5071067;28;20211;-76
2023/06/04 04:06:17;;;;;;;6.00;2.63;;;;;;;13.36;62.11;98142.44;5070800;28;20203;-75
2023/06/04 04:08:44;;;;;;;3.77;2.77;;;;;;;13.34;62.58;98157.66;5070869;28;20574;-76
2023/06/04 04:11:11;;;;;;;3.97;2.23;;;;;;;13.36;62.41;98159.25;5070176;28;20235;-77
2023/06/04 04:13:37;;;;;;;3.53;2.30;;;;;;;13.36;62.82;98158.38;5070922;28;20203;-75
2023/06/04 04:16:06;;;;;;;2.63;2.30;;;;;;;13.35;62.83;98159.34;5070833;28;20207;-77
2023/06/04 04:18:34;;;;;;;3.13;2.47;;;;;;;13.38;62.48;98159.94;5070792;28;20226;-77
2023/06/04 04:21:00;;;;;;;3.37;2.73;;;;;;;13.43;63.10;98164.88;5069850;28;20276;-78
2023/06/04 04:23:27;;;;;;;3.30;2.57;;;;;;;13.51;62.65;98173.09;5070929;28;20218;-77
2023/06/04 04:25:53;;;;;;;5.03;2.40;;;;;;;13.48;63.31;98175.97;5070531;28;20211;-76
2023/06/04 04:28:20;;;;;;;3.37;2.50;;;;;;;13.45;64.11;98173.59;5074000;28;20223;-77
2023/06/04 04:30:46;;;;;;;3.30;2.57;;;;;;;13.50;64.36;98184.69;5073719;28;20262;-75
2023/06/04 04:33:16;;;;;;;3.53;2.70;;;;;;;13.53;64.07;98182.63;5074476;28;20207;-77
2023/06/04 04:35:44;;;;;;;3.90;2.90;;;;;;;13.61;62.80;98174.03;5074287;28;20272;-76
2023/06/04 04:38:10;;;;;;;3.53;2.60;;;;;;;13.66;63.11;98185.97;5074508;28;20701;-77
2023/06/04 04:40:37;;;;;;;3.50;2.60;;;;;;;13.75;62.85;98173.78;5073282;28;20714;-75
2023/06/04 04:43:06;;;;;;;2.90;2.33;;;;;;;13.82;61.65;98167.00;5074266;28;20230;-76
2023/06/04 04:45:32;;;;;;;4.20;2.73;;;;;;;13.90;62.47;98177.81;5074240;28;20211;-76
2023/06/04 04:47:59;;;;;;;3.23;2.40;;;;;;;13.97;62.26;98179.00;5074286;28;20592;-76
2023/06/04 04:50:27;;;;;;;3.40;2.43;;;;;;;14.07;61.40;98171.97;5073438;28;20245;-77
2023/06/04 04:52:53;;;;;;;2.90;2.60;;;;;;;14.19;62.88;98192.25;5073771;28;20220;-78
2023/06/04 04:55:20;;;;;;;3.37;2.40;;;;;;;14.24;63.82;98190.06;5074176;28;20607;-76
2023/06/04 04:57:46;;;;;;;3.73;2.80;;;;;;;14.41;65.22;98208.97;5073853;28;20212;-75
2023/06/04 05:00:15;;;;;;;4.70;2.50;;;;;;;14.58;65.81;98212.88;5073070;28;20230;-78
2023/06/04 05:02:41;;;;;;;3.27;2.20;;;;;;;14.84;62.19;98185.75;5074001;28;20465;-76
2023/06/04 05:05:08;;;;;;;3.23;2.70;;;;;;;15.13;61.96;98192.06;5073911;28;20219;-74
2023/06/04 05:07:36;;;;;;;3.60;2.23;;;;;;;15.69;60.26;98176.47;5073943;28;20211;-76
2023/06/04 05:10:02;;;;;;;2.53;2.10;;;;;;;16.26;59.27;98180.06;5072895;28;20239;-76
2023/06/04 05:12:31;;;;;;;2.70;2.30;;;;;;;16.87;59.24;98192.97;5073537;28;20704;-76
2023/06/04 05:14:57;;;;;;;3.30;2.10;;;;;;;17.41;58.03;98193.13;5073708;28;20203;-76
2023/06/04 05:17:29;;;;;;;2.87;2.50;;;;;;;17.75;57.04;98185.38;5073274;28;20684;-77
2023/06/04 05:20:02;;;;;;;3.70;2.20;;;;;;;18.12;55.83;98178.97;5072981;28;20289;-75
2023/06/04 05:22:29;;;;;;;2.43;2.17;;;;;;;18.17;53.52;98151.75;5073699;28;20211;-76
2023/06/04 05:24:59;;;;;;;3.60;2.80;;;;;;;17.77;54.59;98172.69;5073270;28;20265;-76
2023/06/04 05:27:25;;;;;;;4.17;2.60;;;;;;;17.20;57.34;98196.97;5072927;28;20634;-75
2023/06/04 05:29:52;;;;;;;3.27;2.40;;;;;;;16.70;59.99;98209.72;5072581;28;20227;-76
2023/06/04 05:32:18;;;;;;;3.03;2.47;;;;;;;16.28;62.73;98236.78;5072715;28;20319;-84
2023/06/04 05:34:47;;;;;;;3.10;2.50;;;;;;;15.95;64.03;98238.97;5072777;28;20205;-87
2023/06/04 05:37:16;;;;;;;3.33;2.47;;;;;;;15.66;64.70;98244.22;5072042;28;20260;-87
2023/06/04 05:39:43;;;;;;;3.60;2.17;;;;;;;15.48;66.00;98255.63;5072359;28;20702;-87
2023/06/04 05:42:11;;;;;;;3.03;2.50;;;;;;;15.87;65.74;98260.13;5073557;28;20210;-86
2023/06/04 05:44:38;;;;;;;3.50;2.90;;;;;;;16.59;63.18;98238.38;5073735;28;20238;-86
2023/06/04 05:47:05;;;;;;;4.53;2.60;;;;;;;17.41;59.36;98225.19;5073539;28;20211;-86
2023/06/04 05:49:31;;;;;;;3.27;2.47;;;;;;;18.12;56.94;98208.38;5072008;28;20232;-79
2023/06/04 05:51:58;;;;;;;2.73;2.37;;;;;;;18.72;53.91;98191.56;5073157;28;20666;-78
2023/06/04 05:54:24;;;;;;;3.17;2.47;;;;;;;19.25;51.47;98168.22;5073190;28;20207;-77
2023/06/04 05:56:51;;;;;;;2.70;2.23;;;;;;;19.64;48.91;98145.25;5072976;28;20222;-78
2023/06/04 05:59:18;;;;;;;3.33;2.13;;;;;;;19.85;47.80;98150.19;5072298;28;20684;-76
2023/06/04 06:01:47;;;;;;;3.53;2.27;;;;;;;20.11;46.58;98146.44;5073222;28;20233;-79
2023/06/04 06:04:14;;;;;;;4.77;2.30;;;;;;;20.27;44.32;98111.59;5072743;28;20211;-79
2023/06/04 06:06:40;;;;;;;3.03;1.70;;;;;;;20.41;44.47;98131.56;5072978;28;20223;-81
2023/06/04 06:09:08;;;;;;;3.57;2.17;;;;;;;20.65;43.64;98129.72;5072236;28;20214;-80
2023/06/04 06:11:35;;;;;;;2.27;2.00;;;;;;;20.62;42.68;98111.25;5072710;28;20211;-79
2023/06/04 06:14:01;;;;;;;2.93;2.03;;;;;;;20.80;43.95;98135.25;5073043;28;20239;-82
2023/06/04 06:16:29;;;;;;;2.30;1.80;;;;;;;21.04;43.16;98122.63;5072847;28;20211;-79
2023/06/04 06:18:56;;;;;;;2.20;1.87;;;;;;;21.31;42.70;98127.63;5072608;28;20306;-79
2023/06/04 06:21:22;;;;;;;3.23;2.00;;;;;;;21.52;41.60;98121.66;5072175;28;20249;-80
2023/06/04 06:23:49;;;;;;;2.20;1.77;;;;;;;21.66;41.53;98124.47;5072514;28;20212;-80
2023/06/04 06:26:16;;;;;;;3.23;2.00;;;;;;;21.86;41.67;98130.25;5072363;28;20211;-76
2023/06/04 06:28:44;;;;;;;3.97;1.90;;;;;;;21.93;41.58;98134.75;5072658;28;20217;-81
2023/06/04 06:31:10;;;;;;;2.57;1.90;;;;;;;22.08;41.90;98146.44;5071552;28;20231;-86
2023/06/04 06:33:40;;;;;;;2.20;2.00;;;;;;;22.26;41.90;98143.50;5072263;28;20568;-76
2023/06/04 06:36:07;;;;;;;2.13;1.83;;;;;;;22.39;42.23;98149.13;5072077;28;20219;-75
2023/06/04 06:38:34;;;;;;;2.53;2.20;;;;;;;22.46;42.71;98153.66;5072019;28;20264;-81
2023/06/04 06:41:00;;;;;;;3.27;1.77;;;;;;;22.52;42.07;98158.31;5071270;28;20231;-79
2023/06/04 06:43:27;;;;;;;2.57;2.13;;;;;;;22.27;41.01;98135.25;5072276;28;20218;-78
2023/06/04 06:45:55;;;;;;;2.83;2.10;;;;;;;22.38;40.85;98142.88;5072119;28;20219;-79
2023/06/04 06:48:22;;;;;;;3.33;1.97;;;;;;;22.37;40.78;98138.50;5072092;28;20253;-78
2023/06/04 06:50:49;;;;;;;3.17;2.00;;;;;;;22.47;42.74;98176.00;5070509;28;20606;-80
2023/06/04 06:53:16;;;;;;;2.07;1.70;;;;;;;22.61;41.66;98168.00;5070887;28;20574;-79
2023/06/04 06:55:42;;;;;;;4.07;1.80;;;;;;;22.55;39.94;98133.69;5069438;28;20229;-79
2023/06/04 06:58:09;;;;;;;2.40;2.00;;;;;;;22.16;39.46;98119.50;5070904;28;20682;-79
2023/06/04 07:00:38;;;;;;;3.47;2.20;;;;;;;21.71;40.43;98127.47;5070094;28;20223;-79
2023/06/04 07:03:05;;;;;;;3.20;2.13;;;;;;;21.23;42.36;98149.16;5069672;28;20207;-78
2023/06/04 07:05:31;;;;;;;4.27;2.00;;;;;;;20.81;43.53;98159.25;5070195;28;20207;-79
2023/06/04 07:08:00;;;;;;;3.53;1.90;;;;;;;20.42;43.10;98150.19;5069937;28;20207;-79
2023/06/04 07:10:27;;;;;;;3.90;2.20;;;;;;;20.03;44.64;98157.13;5069274;28;20322;-78
2023/06/04 07:12:53;;;;;;;2.20;2.00;;;;;;;19.77;45.57;98172.50;5070612;28;20230;-78
2023/06/04 07:15:20;;;;;;;3.00;2.20;;;;;;;19.34;46.00;98169.94;5070727;28;20550;-78
2023/06/04 07:17:48;;;;;;;3.30;2.00;;;;;;;19.27;46.07;98173.41;5069938;28;20699;-78
2023/06/04 07:20:14;;;;;;;2.90;2.03;;;;;;;19.22;46.82;98175.72;5069703;28;20714;-79
2023/06/04 07:22:41;;;;;;;2.90;1.80;;;;;;;19.15;47.33;98185.38;5070577;28;20219;-78
2023/06/04 07:25:09;;;;;;;2.03;1.80;;;;;;;19.36;48.63;98216.19;5069674;28;20218;-78
2023/06/04 07:27:36;;;;;;;2.33;1.80;;;;;;;19.45;46.88;98192.94;5069869;28;20213;-77
2023/06/04 07:30:03;;;;;;;4.27;2.37;;;;;;;19.58;46.27;98187.97;5069596;28;20254;-77
2023/06/04 07:32:30;;;;;;;2.40;2.00;;;;;;;19.68;46.61;98194.91;5067407;28;20214;-77
2023/06/04 07:34:56;;;;;;;2.83;1.87;;;;;;;19.97;47.35;98200.72;5067077;28;20207;-78
2023/06/04 07:37:23;;;;;;;3.80;1.93;;;;;;;20.19;48.14;98215.41;5068141;28;20211;-79
2023/06/04 07:39:49;;;;;;;4.37;2.23;;;;;;;20.44;47.45;98209.94;5068033;28;20434;-81
2023/06/04 07:42:17;;;;;;;4.07;1.97;;;;;;;20.55;48.24;98217.66;5069721;28;21041;-80
2023/06/04 07:44:44;;;;;;;2.60;2.10;;;;;;;20.57;46.82;98193.31;5069078;28;20700;-81
2023/06/04 07:47:12;;;;;;;3.47;1.90;;;;;;;20.54;47.04;98199.03;5066953;28;20238;-75
2023/06/04 07:49:39;;;;;;;5.70;2.37;;;;;;;20.63;46.39;98193.50;5067353;28;20224;-77
2023/06/04 07:52:07;;;;;;;4.40;2.33;;;;;;;20.75;46.81;98197.53;5068211;28;20215;-76
2023/06/04 07:54:33;;;;;;;3.77;2.17;;;;;;;20.85;45.51;98187.44;5069375;28;20203;-75
2023/06/04 07:57:00;;;;;;;3.43;2.27;;;;;;;20.93;45.85;98182.13;5070285;28;20211;-77
2023/06/04 07:59:29;;;;;;;3.93;2.00;;;;;;;21.06;47.71;98209.31;5067467;28;20207;-81
2023/06/04 08:01:55;;;;;;;6.73;2.20;;;;;;;20.93;48.55;98222.44;5069433;28;20238;-83
2023/06/04 08:04:25;;;;;;;4.63;2.03;;;;;;;21.03;48.50;98217.69;5071822;28;20243;-82
2023/06/04 08:06:52;;;;;;;3.77;2.30;;;;;;;21.16;47.43;98207.28;5072958;28;20211;-82
2023/06/04 08:09:19;;;;;;;4.20;2.10;;;;;;;21.23;47.59;98202.06;5072561;28;20684;-81
2023/06/04 08:11:46;;;;;;;3.43;2.30;;;;;;;21.22;45.46;98185.09;5074093;28;20709;-83
2023/06/04 08:14:13;;;;;;;2.90;1.87;;;;;;;21.19;45.96;98185.44;5075200;28;20320;-81
2023/06/04 08:16:41;;;;;;;2.53;2.20;;;;;;;21.19;45.56;98180.06;5075313;28;20251;-82
2023/06/04 08:19:08;;;;;;;3.27;2.20;;;;;;;21.23;47.22;98202.06;5076252;28;20650;-83
2023/06/04 08:21:35;;;;;;;2.83;2.10;;;;;;;21.30;47.62;98203.91;5087597;28;20227;-81
2023/06/04 08:24:02;;;;;;;2.80;2.30;;;;;;;21.45;47.33;98198.66;5089682;28;20207;-81
2023/06/04 08:26:28;;;;;;;2.87;2.00;;;;;;;21.60;46.70;98195.09;5088415;28;20701;-78
2023/06/04 08:28:56;;;;;;;2.63;2.10;;;;;;;21.70;46.41;98189.53;5074539;28;20211;-79
2023/06/04 08:31:22;;;;;;;4.43;2.50;;;;;;;21.69;46.67;98194.06;5075876;28;20267;-77
2023/06/04 08:33:50;;;;;;;4.83;2.40;;;;;;;21.59;47.71;98206.84;5073755;28;20211;-78
2023/06/04 08:36:16;;;;;;;2.90;2.17;;;;;;;21.67;47.20;98200.63;5073455;28;20204;-78
2023/06/04 08:38:43;;;;;;;2.93;2.23;;;;;;;21.73;45.60;98184.66;5073051;28;20219;-77
2023/06/04 08:41:14;;;;;;;3.27;2.73;;;;;;;21.67;44.89;98177.28;5072812;28;20235;-77
2023/06/04 08:43:42;;;;;;;2.97;2.17;;;;;;;21.58;46.85;98207.84;5073460;28;20573;-77
2023/06/04 08:46:10;;;;;;;4.47;2.60;;;;;;;21.59;46.21;98193.38;5073011;28;20204;-77
2023/06/04 08:48:38;;;;;;;3.37;2.60;;;;;;;21.47;44.50;98167.88;5073504;28;20219;-77
2023/06/04 08:51:10;;;;;;;4.63;2.13;;;;;;;21.52;45.79;98192.41;5072543;28;20241;-77
2023/06/04 08:53:37;;;;;;;4.80;2.20;;;;;;;21.56;46.80;98203.66;5072434;28;20215;-79
2023/06/04 08:56:04;;;;;;;3.23;2.40;;;;;;;21.56;45.81;98184.81;5073098;28;20210;-77
2023/06/04 08:58:33;;;;;;;4.77;2.30;;;;;;;21.66;46.90;98194.41;5069625;28;20203;-78
2023/06/04 09:01:01;;;;;;;2.47;2.23;;;;;;;21.68;48.98;98231.91;5068645;28;20223;-78
2023/06/04 09:03:29;;;;;;;3.73;2.20;;;;;;;21.77;47.30;98195.91;5069479;28;20294;-78
2023/06/04 09:05:57;;;;;;;2.57;2.37;;;;;;;21.94;47.68;98213.66;5070435;28;20677;-78
2023/06/04 09:08:25;;;;;;;3.53;2.47;;;;;;;22.02;44.77;98176.78;5071809;28;20207;-78
2023/06/04 09:10:54;;;;;;;3.70;2.47;;;;;;;22.10;45.46;98181.25;5072208;28;20257;-78
2023/06/04 09:13:28;;;;;;;2.97;2.10;;;;;;;22.17;46.42;98193.84;5072413;28;20219;-78
2023/06/04 09:16:06;;;;;;;2.67;2.03;;;;;;;22.30;46.63;98196.81;5072430;28;20315;-78
2023/06/04 09:18:33;;;;;;;3.03;2.40;;;;;;;22.41;42.83;98153.31;5073002;28;20207;-78
2023/06/04 09:21:05;;;;;;;4.83;2.40;;;;;;;22.23;42.00;98141.13;5071886;28;20227;-78
2023/06/04 09:23:35;;;;;;;2.63;2.20;;;;;;;22.14;43.35;98161.88;5072217;28;20265;-78
2023/06/04 09:26:09;;;;;;;2.93;2.33;;;;;;;22.25;44.84;98180.34;5072604;28;20210;-78
2023/06/04 09:28:36;;;;;;;2.40;2.20;;;;;;;22.34;47.23;98214.28;5073603;28;20261;-78
2023/06/04 09:31:03;;;;;;;4.83;2.03;;;;;;;22.52;43.29;98166.41;5072619;28;20239;-78
2023/06/04 09:33:29;;;;;;;4.03;2.73;;;;;;;22.57;42.72;98161.31;5073374;28;20203;-79
2023/06/04 09:35:56;;;;;;;5.20;2.70;;;;;;;22.77;44.58;98191.28;5073859;28;20208;-79
2023/06/04 09:38:23;;;;;;;3.63;2.63;;;;;;;22.83;45.03;98196.81;5073449;28;20814;-79
2023/06/04 09:40:51;;;;;;;3.40;2.43;;;;;;;22.96;43.09;98164.69;5077363;22;20240;-79
2023/06/04 09:43:24;;;;;;;3.10;2.70;;;;;;;22.97;41.82;98142.09;5053056;28;20298;-79
2023/06/04 09:45:51;;;;;;;3.73;2.30;;;;;;;22.90;42.43;98154.63;5053110;28;20289;-79
2023/06/04 09:48:21;;;;;;;6.07;2.40;;;;;;;23.05;40.66;98128.50;5052882;28;20243;-77
2023/06/04 09:50:48;;;;;;;3.47;2.27;;;;;;;23.08;45.30;98179.41;5052574;28;20224;-77
2023/06/04 09:53:15;;;;;;;3.23;2.37;;;;;;;23.31;45.68;98187.47;5051997;28;20207;-78
2023/06/04 09:55:42;;;;;;;4.37;2.60;;;;;;;23.41;43.79;98174.53;5052315;28;20208;-80
2023/06/04 09:58:11;;;;;;;3.80;2.30;;;;;;;23.52;42.11;98152.50;5052655;28;20207;-78
2023/06/04 10:00:38;;;;;;;2.80;2.23;;;;;;;23.51;40.81;98130.06;5051841;28;20221;-77
2023/06/04 10:03:06;;;;;;;2.67;2.30;;;;;;;23.65;43.38;98167.00;5052842;28;20571;-77
2023/06/04 10:05:34;;;;;;;3.33;2.60;;;;;;;23.77;42.58;98152.00;5052925;28;20208;-77
2023/06/04 10:08:03;;;;;;;4.37;2.80;;;;;;;23.90;42.51;98159.50;5052647;28;20254;-77
2023/06/04 10:10:31;;;;;;;4.47;2.70;;;;;;;23.98;44.30;98167.47;5051705;28;20243;-77
2023/06/04 10:13:03;;;;;;;2.90;2.13;;;;;;;24.05;43.25;98169.22;5052488;28;20227;-76
2023/06/04 10:15:34;;;;;;;3.07;2.40;;;;;;;24.12;41.16;98132.34;5052572;28;20212;-77
2023/06/04 10:18:02;;;;;;;3.10;2.40;;;;;;;24.12;43.14;98162.03;5051841;28;20265;-77
2023/06/04 10:20:29;;;;;;;3.03;2.43;;;;;;;24.31;43.18;98169.53;5051449;28;20232;-76
2023/06/04 10:22:56;;;;;;;2.80;2.47;;;;;;;24.24;38.47;98109.19;5052245;28;20216;-78
2023/06/04 10:25:23;;;;;;;2.70;2.50;;;;;;;24.25;40.79;98137.88;5050966;28;20266;-77
2023/06/04 10:27:52;;;;;;;2.90;2.43;;;;;;;24.29;41.85;98147.28;5051997;28;20212;-77
2023/06/04 10:30:18;;;;;;;3.80;2.50;;;;;;;24.33;41.23;98140.44;5051677;28;20272;-77
2023/06/04 10:32:47;;;;;;;4.13;2.70;;;;;;;24.46;40.41;98127.09;5051720;28;20235;-76
2023/06/04 10:35:14;;;;;;;5.70;2.90;;;;;;;24.48;40.81;98133.13;5052097;28;20208;-77
2023/06/04 10:37:41;;;;;;;2.87;2.60;;;;;;;24.64;39.17;98099.66;5052223;28;20243;-77
2023/06/04 10:40:08;;;;;;;4.17;3.00;;;;;;;24.71;38.20;98101.38;5050663;28;20721;-78
2023/06/04 10:42:43;;;;;;;4.20;3.00;;;;;;;24.46;38.10;98093.81;5052166;28;20294;-77
2023/06/04 10:45:11;;;;;;;4.10;2.77;;;;;;;24.47;36.21;98063.91;5051965;28;20219;-78
2023/06/04 10:47:40;;;;;;;3.97;2.97;;;;;;;24.36;37.63;98075.25;5052014;28;20218;-78
2023/06/04 10:50:10;;;;;;;3.23;2.80;;;;;;;24.42;39.07;98106.88;5051053;28;20381;-77
2023/06/04 10:52:37;;;;;;;3.77;2.67;;;;;;;24.47;38.20;98085.53;5050424;28;20373;-78
2023/06/04 10:55:06;;;;;;;3.30;2.60;;;;;;;24.57;40.76;98120.38;5047963;28;20216;-78
2023/06/04 10:57:33;;;;;;;3.10;2.77;;;;;;;24.74;39.29;98111.78;5047731;28;20208;-78
2023/06/04 11:00:03;;;;;;;3.67;2.77;;;;;;;24.85;37.21;98094.19;5048122;28;20345;-77
2023/06/04 11:02:29;;;;;;;2.60;2.40;;;;;;;24.68;36.09;98072.03;5049856;28;20306;-83
2023/06/04 11:05:02;;;;;;;3.77;2.80;;;;;;;24.60;36.78;98077.56;5051565;28;20208;-85
2023/06/04 11:07:42;;;;;;;5.77;2.77;;;;;;;24.57;38.76;98104.97;5051731;28;20211;-85
2023/06/04 11:10:10;;;;;;;4.67;2.60;;;;;;;24.65;37.06;98075.13;5050826;28;20224;-83
2023/06/04 11:12:42;;;;;;;3.67;2.80;;;;;;;24.62;35.97;98063.88;5050694;28;20462;-84
2023/06/04 11:15:10;;;;;;;4.47;2.80;;;;;;;24.54;36.35;98067.50;5051433;28;20207;-84
2023/06/04 11:17:36;;;;;;;3.43;2.70;;;;;;;24.56;38.71;98095.16;5051161;28;20210;-84
2023/06/04 11:20:06;;;;;;;3.75;2.90;;;;;;;24.68;40.65;98134.19;5050505;28;20726;-81
2023/06/04 11:22:34;;;;;;;3.77;3.27;;;;;;;24.77;36.55;98078.13;5048235;28;20287;-80
2023/06/04 11:25:01;;;;;;;4.23;2.80;;;;;;;24.71;40.05;98109.50;5050820;28;20215;-80
2023/06/04 11:27:27;;;;;;;3.23;2.93;;;;;;;24.80;40.13;98127.22;5050189;28;20214;-80
2023/06/04 11:29:54;;;;;;;4.53;3.03;;;;;;;24.86;36.82;98088.59;5050499;28;20232;-81
2023/06/04 11:32:24;;;;;;;4.47;3.17;;;;;;;24.90;38.60;98111.50;5050918;28;20235;-81
2023/06/04 11:34:51;;;;;;;5.10;3.30;;;;;;;25.00;37.26;98092.25;5051146;28;20219;-81
2023/06/04 11:37:17;;;;;;;6.10;3.00;;;;;;;24.95;34.58;98044.16;5051042;28;20208;-83